sensor_id;sensor_type;location;lat;lon;timestamp;P1;durP1;ratioP1;P2;durP2;ratioP2
67602;SDS011;54417;47.454;18.918;2023-05-29T00:02:35;7.20;;;4.28;;
67602;SDS011;54417;47.454;18.918;2023-05-29T00:07:42;6.93;;;3.75;;
67602;SDS011;54417;47.454;18.918;2023-05-29T00:12:53;7.93;;;3.88;;
67602;SDS011;54417;47.454;18.918;2023-05-29T00:18:00;4.82;;;3.35;;
67602;SDS011;54417;47.454;18.918;2023-05-29T00:23:09;6.75;;;3.75;;
67602;SDS011;54417;47.454;18.918;2023-05-29T00:28:19;6.07;;;3.90;;
67602;SDS011;54417;47.454;18.918;2023-05-29T00:33:27;7.82;;;4.15;;
67602;SDS011;54417;47.454;18.918;2023-05-29T00:38:34;7.10;;;3.88;;
67602;SDS011;54417;47.454;18.918;2023-05-29T00:43:46;6.65;;;3.90;;
67602;SDS011;54417;47.454;18.918;2023-05-29T00:48:56;6.07;;;3.63;;
67602;SDS011;54417;47.454;18.918;2023-05-29T00:54:05;6.80;;;3.88;;
67602;SDS011;54417;47.454;18.918;2023-05-29T00:59:17;5.68;;;3.70;;
67602;SDS011;54417;47.454;18.918;2023-05-29T01:04:26;5.45;;;3.55;;
67602;SDS011;54417;47.454;18.918;2023-05-29T01:09:37;7.30;;;4.18;;
67602;SDS011;54417;47.454;18.918;2023-05-29T01:14:51;5.05;;;3.45;;
67602;SDS011;54417;47.454;18.918;2023-05-29T01:20:09;5.22;;;3.20;;
67602;SDS011;54417;47.454;18.918;2023-05-29T01:25:29;6.63;;;3.30;;
67602;SDS011;54417;47.454;18.918;2023-05-29T01:30:49;7.43;;;3.67;;
67602;SDS011;54417;47.454;18.918;2023-05-29T01:35:57;6.90;;;3.80;;
67602;SDS011;54417;47.454;18.918;2023-05-29T01:41:03;9.57;;;4.22;;
67602;SDS011;54417;47.454;18.918;2023-05-29T01:46:14;4.72;;;3.58;;
67602;SDS011;54417;47.454;18.918;2023-05-29T01:56:29;7.43;;;3.95;;
67602;SDS011;54417;47.454;18.918;2023-05-29T02:06:49;7.05;;;3.72;;
67602;SDS011;54417;47.454;18.918;2023-05-29T02:11:56;4.55;;;3.15;;
67602;SDS011;54417;47.454;18.918;2023-05-29T02:17:04;5.97;;;3.55;;
67602;SDS011;54417;47.454;18.918;2023-05-29T02:22:15;4.45;;;3.30;;
67602;SDS011;54417;47.454;18.918;2023-05-29T02:27:23;5.00;;;3.53;;
67602;SDS011;54417;47.454;18.918;2023-05-29T02:32:29;5.32;;;3.90;;
67602;SDS011;54417;47.454;18.918;2023-05-29T02:37:39;6.47;;;4.22;;
67602;SDS011;54417;47.454;18.918;2023-05-29T02:42:51;5.05;;;3.80;;
67602;SDS011;54417;47.454;18.918;2023-05-29T02:47:59;7.30;;;3.80;;
67602;SDS011;54417;47.454;18.918;2023-05-29T02:58:17;10.57;;;4.15;;
67602;SDS011;54417;47.454;18.918;2023-05-29T03:03:24;6.38;;;4.10;;
67602;SDS011;54417;47.454;18.918;2023-05-29T03:08:34;5.30;;;3.95;;
67602;SDS011;54417;47.454;18.918;2023-05-29T03:13:46;5.10;;;4.28;;
67602;SDS011;54417;47.454;18.918;2023-05-29T03:18:53;5.45;;;3.53;;
67602;SDS011;54417;47.454;18.918;2023-05-29T03:23:59;8.32;;;3.90;;
67602;SDS011;54417;47.454;18.918;2023-05-29T03:29:11;5.80;;;3.75;;
67602;SDS011;54417;47.454;18.918;2023-05-29T03:34:18;4.93;;;3.90;;
67602;SDS011;54417;47.454;18.918;2023-05-29T03:39:32;7.32;;;3.97;;
67602;SDS011;54417;47.454;18.918;2023-05-29T03:44:44;7.68;;;4.40;;
67602;SDS011;54417;47.454;18.918;2023-05-29T03:49:51;4.47;;;3.40;;
67602;SDS011;54417;47.454;18.918;2023-05-29T03:54:58;7.90;;;4.15;;
67602;SDS011;54417;47.454;18.918;2023-05-29T04:00:10;6.93;;;4.05;;
67602;SDS011;54417;47.454;18.918;2023-05-29T04:05:23;9.52;;;4.05;;
67602;SDS011;54417;47.454;18.918;2023-05-29T04:10:29;6.57;;;3.72;;
67602;SDS011;54417;47.454;18.918;2023-05-29T04:15:39;7.55;;;4.65;;
67602;SDS011;54417;47.454;18.918;2023-05-29T04:20:47;10.50;;;4.73;;
67602;SDS011;54417;47.454;18.918;2023-05-29T04:25:55;7.47;;;3.85;;
67602;SDS011;54417;47.454;18.918;2023-05-29T04:31:09;5.55;;;3.85;;
67602;SDS011;54417;47.454;18.918;2023-05-29T04:36:24;8.90;;;3.90;;
67602;SDS011;54417;47.454;18.918;2023-05-29T04:41:42;6.40;;;4.10;;
67602;SDS011;54417;47.454;18.918;2023-05-29T04:46:57;7.32;;;4.13;;
67602;SDS011;54417;47.454;18.918;2023-05-29T04:52:06;11.68;;;4.35;;
67602;SDS011;54417;47.454;18.918;2023-05-29T04:57:13;6.47;;;4.10;;
67602;SDS011;54417;47.454;18.918;2023-05-29T05:02:29;5.88;;;3.70;;
67602;SDS011;54417;47.454;18.918;2023-05-29T05:07:36;5.18;;;3.67;;
67602;SDS011;54417;47.454;18.918;2023-05-29T05:12:43;19.52;;;5.72;;
67602;SDS011;54417;47.454;18.918;2023-05-29T05:17:55;7.90;;;4.25;;
67602;SDS011;54417;47.454;18.918;2023-05-29T05:23:04;11.80;;;4.30;;
67602;SDS011;54417;47.454;18.918;2023-05-29T05:28:20;8.32;;;3.75;;
67602;SDS011;54417;47.454;18.918;2023-05-29T05:33:30;14.73;;;4.45;;
67602;SDS011;54417;47.454;18.918;2023-05-29T05:38:38;7.63;;;3.72;;
67602;SDS011;54417;47.454;18.918;2023-05-29T05:43:46;6.60;;;3.95;;
67602;SDS011;54417;47.454;18.918;2023-05-29T05:49:04;8.25;;;4.13;;
67602;SDS011;54417;47.454;18.918;2023-05-29T05:54:13;7.72;;;3.60;;
67602;SDS011;54417;47.454;18.918;2023-05-29T05:59:20;6.50;;;3.53;;
67602;SDS011;54417;47.454;18.918;2023-05-29T06:04:31;6.35;;;3.63;;
67602;SDS011;54417;47.454;18.918;2023-05-29T06:09:39;9.02;;;3.90;;
67602;SDS011;54417;47.454;18.918;2023-05-29T06:14:47;8.38;;;3.83;;
67602;SDS011;54417;47.454;18.918;2023-05-29T06:20:17;8.05;;;4.05;;
67602;SDS011;54417;47.454;18.918;2023-05-29T06:30:37;12.50;;;3.53;;
67602;SDS011;54417;47.454;18.918;2023-05-29T06:35:58;11.05;;;3.33;;
67602;SDS011;54417;47.454;18.918;2023-05-29T06:41:06;6.22;;;3.20;;
67602;SDS011;54417;47.454;18.918;2023-05-29T06:46:11;10.40;;;3.60;;
67602;SDS011;54417;47.454;18.918;2023-05-29T06:51:20;6.05;;;3.50;;
67602;SDS011;54417;47.454;18.918;2023-05-29T06:56:30;10.93;;;3.58;;
67602;SDS011;54417;47.454;18.918;2023-05-29T07:01:38;9.40;;;3.70;;
67602;SDS011;54417;47.454;18.918;2023-05-29T07:06:48;6.03;;;3.58;;
67602;SDS011;54417;47.454;18.918;2023-05-29T07:11:59;12.45;;;3.85;;
67602;SDS011;54417;47.454;18.918;2023-05-29T07:17:06;7.75;;;3.10;;
67602;SDS011;54417;47.454;18.918;2023-05-29T07:22:16;7.15;;;3.85;;
67602;SDS011;54417;47.454;18.918;2023-05-29T07:32:31;8.63;;;3.85;;
67602;SDS011;54417;47.454;18.918;2023-05-29T07:37:41;7.07;;;3.85;;
67602;SDS011;54417;47.454;18.918;2023-05-29T07:42:51;5.22;;;3.42;;
67602;SDS011;54417;47.454;18.918;2023-05-29T07:47:58;13.05;;;4.30;;
67602;SDS011;54417;47.454;18.918;2023-05-29T07:53:09;8.48;;;3.78;;
67602;SDS011;54417;47.454;18.918;2023-05-29T07:58:17;10.23;;;4.15;;
67602;SDS011;54417;47.454;18.918;2023-05-29T08:03:26;4.40;;;3.25;;
67602;SDS011;54417;47.454;18.918;2023-05-29T08:09:03;5.40;;;3.67;;
67602;SDS011;54417;47.454;18.918;2023-05-29T08:14:11;8.25;;;3.70;;
67602;SDS011;54417;47.454;18.918;2023-05-29T08:19:18;14.85;;;4.72;;
67602;SDS011;54417;47.454;18.918;2023-05-29T08:29:43;5.63;;;3.63;;
67602;SDS011;54417;47.454;18.918;2023-05-29T08:39:57;7.03;;;3.67;;
67602;SDS011;54417;47.454;18.918;2023-05-29T08:45:08;8.85;;;3.88;;
67602;SDS011;54417;47.454;18.918;2023-05-29T08:55:26;8.38;;;3.85;;
67602;SDS011;54417;47.454;18.918;2023-05-29T09:00:37;6.20;;;4.25;;
67602;SDS011;54417;47.454;18.918;2023-05-29T09:05:45;8.73;;;4.38;;
67602;SDS011;54417;47.454;18.918;2023-05-29T09:10:52;8.98;;;3.60;;
67602;SDS011;54417;47.454;18.918;2023-05-29T09:16:04;9.18;;;3.60;;
67602;SDS011;54417;47.454;18.918;2023-05-29T09:21:13;8.38;;;4.43;;
67602;SDS011;54417;47.454;18.918;2023-05-29T09:26:33;9.02;;;3.72;;
67602;SDS011;54417;47.454;18.918;2023-05-29T09:31:45;8.10;;;4.00;;
67602;SDS011;54417;47.454;18.918;2023-05-29T09:36:53;13.85;;;4.13;;
67602;SDS011;54417;47.454;18.918;2023-05-29T09:42:36;7.93;;;3.90;;
67602;SDS011;54417;47.454;18.918;2023-05-29T09:47:47;7.47;;;3.88;;
67602;SDS011;54417;47.454;18.918;2023-05-29T09:52:55;9.38;;;3.83;;
67602;SDS011;54417;47.454;18.918;2023-05-29T09:58:03;6.07;;;3.92;;
67602;SDS011;54417;47.454;18.918;2023-05-29T10:03:15;6.85;;;3.45;;
67602;SDS011;54417;47.454;18.918;2023-05-29T10:08:33;6.10;;;3.50;;
67602;SDS011;54417;47.454;18.918;2023-05-29T10:13:44;8.70;;;3.80;;
67602;SDS011;54417;47.454;18.918;2023-05-29T10:18:54;13.05;;;4.20;;
67602;SDS011;54417;47.454;18.918;2023-05-29T10:24:08;6.40;;;3.60;;
67602;SDS011;54417;47.454;18.918;2023-05-29T10:29:18;9.90;;;3.55;;
67602;SDS011;54417;47.454;18.918;2023-05-29T10:34:33;6.53;;;3.50;;
67602;SDS011;54417;47.454;18.918;2023-05-29T10:39:49;7.32;;;3.90;;
67602;SDS011;54417;47.454;18.918;2023-05-29T10:44:56;6.15;;;3.80;;
67602;SDS011;54417;47.454;18.918;2023-05-29T10:50:04;9.45;;;3.42;;
67602;SDS011;54417;47.454;18.918;2023-05-29T10:55:14;12.15;;;4.28;;
67602;SDS011;54417;47.454;18.918;2023-05-29T11:00:23;7.03;;;3.53;;
67602;SDS011;54417;47.454;18.918;2023-05-29T11:05:30;9.02;;;3.95;;
67602;SDS011;54417;47.454;18.918;2023-05-29T11:10:55;6.93;;;3.85;;
67602;SDS011;54417;47.454;18.918;2023-05-29T11:16:05;8.13;;;3.63;;
67602;SDS011;54417;47.454;18.918;2023-05-29T11:21:26;6.63;;;3.53;;
67602;SDS011;54417;47.454;18.918;2023-05-29T11:26:40;17.90;;;4.40;;
67602;SDS011;54417;47.454;18.918;2023-05-29T11:31:54;8.38;;;3.90;;
67602;SDS011;54417;47.454;18.918;2023-05-29T11:37:04;5.60;;;4.10;;
67602;SDS011;54417;47.454;18.918;2023-05-29T11:42:16;7.97;;;4.07;;
67602;SDS011;54417;47.454;18.918;2023-05-29T11:47:23;13.10;;;4.28;;
67602;SDS011;54417;47.454;18.918;2023-05-29T11:52:30;8.60;;;3.85;;
67602;SDS011;54417;47.454;18.918;2023-05-29T11:57:41;11.23;;;3.80;;
67602;SDS011;54417;47.454;18.918;2023-05-29T12:02:49;7.18;;;3.88;;
67602;SDS011;54417;47.454;18.918;2023-05-29T12:13:09;12.52;;;6.72;;
67602;SDS011;54417;47.454;18.918;2023-05-29T12:18:18;4.28;;;3.42;;
67602;SDS011;54417;47.454;18.918;2023-05-29T12:23:25;7.40;;;4.28;;
67602;SDS011;54417;47.454;18.918;2023-05-29T12:28:35;9.77;;;4.18;;
67602;SDS011;54417;47.454;18.918;2023-05-29T12:33:49;9.05;;;4.07;;
67602;SDS011;54417;47.454;18.918;2023-05-29T12:38:57;6.90;;;3.80;;
67602;SDS011;54417;47.454;18.918;2023-05-29T12:44:06;5.40;;;3.60;;
67602;SDS011;54417;47.454;18.918;2023-05-29T12:49:14;6.65;;;4.22;;
67602;SDS011;54417;47.454;18.918;2023-05-29T12:54:23;9.25;;;4.47;;
67602;SDS011;54417;47.454;18.918;2023-05-29T12:59:34;6.38;;;3.55;;
67602;SDS011;54417;47.454;18.918;2023-05-29T13:04:46;9.75;;;4.07;;
67602;SDS011;54417;47.454;18.918;2023-05-29T13:09:51;7.28;;;4.57;;
67602;SDS011;54417;47.454;18.918;2023-05-29T13:15:01;9.07;;;4.20;;
67602;SDS011;54417;47.454;18.918;2023-05-29T13:20:09;6.70;;;3.95;;
67602;SDS011;54417;47.454;18.918;2023-05-29T13:30:31;10.25;;;3.97;;
67602;SDS011;54417;47.454;18.918;2023-05-29T13:35:38;6.63;;;4.07;;
67602;SDS011;54417;47.454;18.918;2023-05-29T13:40:45;10.57;;;3.92;;
67602;SDS011;54417;47.454;18.918;2023-05-29T13:45:55;9.73;;;4.22;;
67602;SDS011;54417;47.454;18.918;2023-05-29T13:51:03;6.93;;;4.03;;
67602;SDS011;54417;47.454;18.918;2023-05-29T13:56:11;16.90;;;4.80;;
67602;SDS011;54417;47.454;18.918;2023-05-29T14:01:21;6.45;;;3.85;;
67602;SDS011;54417;47.454;18.918;2023-05-29T14:06:28;5.38;;;4.07;;
67602;SDS011;54417;47.454;18.918;2023-05-29T14:11:36;4.63;;;3.95;;
67602;SDS011;54417;47.454;18.918;2023-05-29T14:16:46;7.45;;;4.10;;
67602;SDS011;54417;47.454;18.918;2023-05-29T14:21:54;4.85;;;3.35;;
67602;SDS011;54417;47.454;18.918;2023-05-29T14:27:03;10.38;;;3.42;;
67602;SDS011;54417;47.454;18.918;2023-05-29T14:32:13;7.75;;;4.07;;
67602;SDS011;54417;47.454;18.918;2023-05-29T14:37:20;5.72;;;3.88;;
67602;SDS011;54417;47.454;18.918;2023-05-29T14:42:54;7.68;;;3.85;;
67602;SDS011;54417;47.454;18.918;2023-05-29T14:48:04;6.97;;;3.60;;
67602;SDS011;54417;47.454;18.918;2023-05-29T14:53:11;5.50;;;3.33;;
67602;SDS011;54417;47.454;18.918;2023-05-29T14:58:19;7.90;;;3.65;;
67602;SDS011;54417;47.454;18.918;2023-05-29T15:03:29;9.82;;;3.75;;
67602;SDS011;54417;47.454;18.918;2023-05-29T15:08:36;5.22;;;3.42;;
67602;SDS011;54417;47.454;18.918;2023-05-29T15:13:47;5.00;;;3.50;;
67602;SDS011;54417;47.454;18.918;2023-05-29T15:18:57;6.70;;;3.40;;
67602;SDS011;54417;47.454;18.918;2023-05-29T15:24:04;6.28;;;3.30;;
67602;SDS011;54417;47.454;18.918;2023-05-29T15:29:14;6.20;;;3.55;;
67602;SDS011;54417;47.454;18.918;2023-05-29T15:34:24;4.93;;;3.53;;
67602;SDS011;54417;47.454;18.918;2023-05-29T15:39:32;6.05;;;3.38;;
67602;SDS011;54417;47.454;18.918;2023-05-29T15:44:41;5.70;;;3.83;;
67602;SDS011;54417;47.454;18.918;2023-05-29T15:49:50;6.35;;;3.95;;
67602;SDS011;54417;47.454;18.918;2023-05-29T15:54:57;5.88;;;3.80;;
67602;SDS011;54417;47.454;18.918;2023-05-29T16:00:06;6.93;;;3.90;;
67602;SDS011;54417;47.454;18.918;2023-05-29T16:05:18;4.93;;;3.50;;
67602;SDS011;54417;47.454;18.918;2023-05-29T16:10:25;7.13;;;3.58;;
67602;SDS011;54417;47.454;18.918;2023-05-29T16:15:32;5.63;;;3.72;;
67602;SDS011;54417;47.454;18.918;2023-05-29T16:20:42;4.85;;;4.03;;
67602;SDS011;54417;47.454;18.918;2023-05-29T16:25:50;8.20;;;3.90;;
67602;SDS011;54417;47.454;18.918;2023-05-29T16:30:58;14.35;;;4.30;;
67602;SDS011;54417;47.454;18.918;2023-05-29T16:36:08;4.47;;;3.75;;
67602;SDS011;54417;47.454;18.918;2023-05-29T16:41:16;8.60;;;3.95;;
67602;SDS011;54417;47.454;18.918;2023-05-29T16:46:23;7.25;;;4.18;;
67602;SDS011;54417;47.454;18.918;2023-05-29T16:51:32;5.43;;;3.50;;
67602;SDS011;54417;47.454;18.918;2023-05-29T16:56:39;5.18;;;3.90;;
67602;SDS011;54417;47.454;18.918;2023-05-29T17:01:47;7.85;;;3.90;;
67602;SDS011;54417;47.454;18.918;2023-05-29T17:06:56;5.28;;;3.72;;
67602;SDS011;54417;47.454;18.918;2023-05-29T17:12:04;5.20;;;3.58;;
67602;SDS011;54417;47.454;18.918;2023-05-29T17:17:10;5.00;;;4.10;;
67602;SDS011;54417;47.454;18.918;2023-05-29T17:22:25;7.13;;;4.03;;
67602;SDS011;54417;47.454;18.918;2023-05-29T17:27:32;9.70;;;3.95;;
67602;SDS011;54417;47.454;18.918;2023-05-29T17:32:39;4.72;;;3.50;;
67602;SDS011;54417;47.454;18.918;2023-05-29T17:37:49;10.13;;;4.28;;
67602;SDS011;54417;47.454;18.918;2023-05-29T17:42:58;11.18;;;4.82;;
67602;SDS011;54417;47.454;18.918;2023-05-29T17:48:07;10.32;;;4.25;;
67602;SDS011;54417;47.454;18.918;2023-05-29T17:53:17;7.50;;;4.45;;
67602;SDS011;54417;47.454;18.918;2023-05-29T17:58:24;9.32;;;4.55;;
67602;SDS011;54417;47.454;18.918;2023-05-29T18:03:31;11.98;;;3.97;;
67602;SDS011;54417;47.454;18.918;2023-05-29T18:09:08;5.68;;;4.18;;
67602;SDS011;54417;47.454;18.918;2023-05-29T18:14:15;8.07;;;4.15;;
67602;SDS011;54417;47.454;18.918;2023-05-29T18:19:22;8.02;;;4.38;;
67602;SDS011;54417;47.454;18.918;2023-05-29T18:24:32;8.68;;;4.45;;
67602;SDS011;54417;47.454;18.918;2023-05-29T18:29:39;6.95;;;4.57;;
67602;SDS011;54417;47.454;18.918;2023-05-29T18:34:47;15.80;;;5.35;;
67602;SDS011;54417;47.454;18.918;2023-05-29T18:39:57;6.22;;;4.72;;
67602;SDS011;54417;47.454;18.918;2023-05-29T18:45:05;10.80;;;4.47;;
67602;SDS011;54417;47.454;18.918;2023-05-29T18:50:13;8.35;;;4.65;;
67602;SDS011;54417;47.454;18.918;2023-05-29T18:55:23;7.55;;;3.90;;
67602;SDS011;54417;47.454;18.918;2023-05-29T19:00:35;7.63;;;4.45;;
67602;SDS011;54417;47.454;18.918;2023-05-29T19:05:43;11.02;;;5.22;;
67602;SDS011;54417;47.454;18.918;2023-05-29T19:10:53;6.82;;;4.50;;
67602;SDS011;54417;47.454;18.918;2023-05-29T19:16:00;9.38;;;4.45;;
67602;SDS011;54417;47.454;18.918;2023-05-29T19:21:07;7.55;;;4.80;;
67602;SDS011;54417;47.454;18.918;2023-05-29T19:26:25;14.15;;;5.35;;
67602;SDS011;54417;47.454;18.918;2023-05-29T19:31:33;7.03;;;4.80;;
67602;SDS011;54417;47.454;18.918;2023-05-29T19:36:40;9.77;;;5.05;;
67602;SDS011;54417;47.454;18.918;2023-05-29T19:41:50;8.50;;;5.25;;
67602;SDS011;54417;47.454;18.918;2023-05-29T19:46:57;5.95;;;4.97;;
67602;SDS011;54417;47.454;18.918;2023-05-29T19:52:04;7.35;;;4.78;;
67602;SDS011;54417;47.454;18.918;2023-05-29T19:57:18;7.93;;;5.55;;
67602;SDS011;54417;47.454;18.918;2023-05-29T20:02:25;7.07;;;5.15;;
67602;SDS011;54417;47.454;18.918;2023-05-29T20:07:36;10.00;;;4.63;;
67602;SDS011;54417;47.454;18.918;2023-05-29T20:17:54;15.30;;;6.93;;
67602;SDS011;54417;47.454;18.918;2023-05-29T20:23:01;7.90;;;5.57;;
67602;SDS011;54417;47.454;18.918;2023-05-29T20:28:11;7.88;;;5.80;;
67602;SDS011;54417;47.454;18.918;2023-05-29T20:33:18;10.63;;;5.20;;
67602;SDS011;54417;47.454;18.918;2023-05-29T20:38:25;9.77;;;5.55;;
67602;SDS011;54417;47.454;18.918;2023-05-29T20:43:54;9.40;;;5.93;;
67602;SDS011;54417;47.454;18.918;2023-05-29T20:49:02;8.00;;;5.47;;
67602;SDS011;54417;47.454;18.918;2023-05-29T20:54:11;9.23;;;5.63;;
67602;SDS011;54417;47.454;18.918;2023-05-29T20:59:21;10.77;;;6.43;;
67602;SDS011;54417;47.454;18.918;2023-05-29T21:09:56;8.95;;;6.13;;
67602;SDS011;54417;47.454;18.918;2023-05-29T21:15:07;9.95;;;5.47;;
67602;SDS011;54417;47.454;18.918;2023-05-29T21:20:17;7.85;;;5.78;;
67602;SDS011;54417;47.454;18.918;2023-05-29T21:25:24;10.60;;;5.75;;
67602;SDS011;54417;47.454;18.918;2023-05-29T21:30:34;11.27;;;6.22;;
67602;SDS011;54417;47.454;18.918;2023-05-29T21:35:42;12.32;;;6.30;;
67602;SDS011;54417;47.454;18.918;2023-05-29T21:40:48;8.63;;;6.60;;
67602;SDS011;54417;47.454;18.918;2023-05-29T21:45:58;8.75;;;6.18;;
67602;SDS011;54417;47.454;18.918;2023-05-29T21:51:06;8.98;;;6.00;;
67602;SDS011;54417;47.454;18.918;2023-05-29T21:56:13;8.43;;;6.13;;
67602;SDS011;54417;47.454;18.918;2023-05-29T22:01:29;9.32;;;6.20;;
67602;SDS011;54417;47.454;18.918;2023-05-29T22:06:36;11.45;;;6.85;;
67602;SDS011;54417;47.454;18.918;2023-05-29T22:11:44;13.23;;;7.25;;
67602;SDS011;54417;47.454;18.918;2023-05-29T22:16:54;9.77;;;6.60;;
67602;SDS011;54417;47.454;18.918;2023-05-29T22:22:02;11.45;;;6.63;;
67602;SDS011;54417;47.454;18.918;2023-05-29T22:27:12;9.87;;;6.80;;
67602;SDS011;54417;47.454;18.918;2023-05-29T22:32:23;8.80;;;6.38;;
67602;SDS011;54417;47.454;18.918;2023-05-29T22:37:30;11.83;;;8.03;;
67602;SDS011;54417;47.454;18.918;2023-05-29T22:42:37;8.60;;;6.70;;
67602;SDS011;54417;47.454;18.918;2023-05-29T22:53:05;10.07;;;6.88;;
67602;SDS011;54417;47.454;18.918;2023-05-29T22:58:13;9.77;;;6.85;;
67602;SDS011;54417;47.454;18.918;2023-05-29T23:03:20;12.85;;;7.60;;
67602;SDS011;54417;47.454;18.918;2023-05-29T23:08:31;10.15;;;7.35;;
67602;SDS011;54417;47.454;18.918;2023-05-29T23:13:39;10.82;;;6.97;;
67602;SDS011;54417;47.454;18.918;2023-05-29T23:18:44;12.35;;;8.10;;
67602;SDS011;54417;47.454;18.918;2023-05-29T23:24:03;17.92;;;8.35;;
67602;SDS011;54417;47.454;18.918;2023-05-29T23:29:10;12.30;;;7.90;;
67602;SDS011;54417;47.454;18.918;2023-05-29T23:34:18;15.10;;;7.88;;
67602;SDS011;54417;47.454;18.918;2023-05-29T23:39:26;13.15;;;9.30;;
67602;SDS011;54417;47.454;18.918;2023-05-29T23:44:32;13.55;;;8.02;;
67602;SDS011;54417;47.454;18.918;2023-05-29T23:49:39;11.13;;;7.57;;
67602;SDS011;54417;47.454;18.918;2023-05-29T23:54:49;9.52;;;7.40;;
67602;SDS011;54417;47.454;18.918;2023-05-29T23:59:56;9.17;;;7.37;;
